• Join FlightAware (Why Join?)
  • Login
  • US Flag 
10:51PM EDT


 

Airport Tracker/Info


-or-


 

Live Flight TrackerFlight Track Log ✈ FFT932 ✈ 12-Nov-2013 ✈ KTPA - KTTN

Flight Track Log - Related Links

Times and Time Zones

All times are in EST time to prevent confusion due to time zone crossing. See the FFT932 flight status page for this flight to view local times or setup timezone preferences in your user account.

Time Position Orientation Groundspeed Altitude Reporting Facility
EST Latitude Longitude Course Direction KTS MPH feet Rate Location/Type
07:03PM 27.9833 -82.5333 360° North 151 174 600  Level Tampa TRACON
07:03PM 28.0167 -82.5333 360° North 153 176 1,700 2,460 Climbing Tampa TRACON
07:06PM 28.1536 -82.5394 358° North 229 264 7,200 2,520 Climbing Jacksonville Center
07:07PM 28.2289 -82.5581 348° North 257 296 10,000 2,340 Climbing Jacksonville Center
07:08PM 28.3144 -82.5719 352° North 285 328 11,900 1,620 Climbing Jacksonville Center
07:09PM 28.4167 -82.5833 354° North 331 381 13,300 1,980 Climbing Jacksonville Center
07:10PM 28.5314 -82.5831 360° North 376 433 15,900 2,640 Climbing Jacksonville Center
07:11PM 28.6400 -82.5875 358° North 388 447 18,600 1,980 Climbing Jacksonville Center
07:12PM 28.7361 -82.5967 355° North 388 447 19,900 900 Climbing Jacksonville Center
07:13PM 28.8528 -82.6128 353° North 395 455 20,500 720 Climbing Jacksonville Center
07:14PM 28.9761 -82.6314 352° North 423 487 21,400 1,020 Climbing Jacksonville Center
07:15PM 29.1056 -82.6503 353° North 450 518 22,600 1,200 Climbing Jacksonville Center
07:16PM 29.2392 -82.6689 353° North 467 537 23,900 1,260 Climbing Jacksonville Center
07:17PM 29.3708 -82.6853 354° North 472 543 25,200 1,680 Climbing Jacksonville Center
07:18PM 29.5169 -82.6944 357° North 472 543 27,300 2,040 Climbing Jacksonville Center
07:19PM 29.6464 -82.6942 360° North 473 544 29,300 1,920 Climbing Jacksonville Center
07:20PM 29.7675 -82.6917 North 455 524 31,200 1,500 Climbing Jacksonville Center
07:21PM 29.8928 -82.6914 360° North 450 518 32,300 1,140 Climbing Jacksonville Center
07:22PM 30.0178 -82.6936 359° North 450 518 33,500 840 Climbing Jacksonville Center
07:23PM 30.1472 -82.6883 North 445 512 34,000 540 Climbing Jacksonville Center
07:24PM 30.2853 -82.6856 North 460 529 34,600 900 Climbing Jacksonville Center
07:25PM 30.4189 -82.6853 360° North 478 550 35,800 1,200 Climbing Jacksonville Center
07:26PM 30.5503 -82.6828 North 478 550 37,000 600 Climbing Jacksonville Center
07:27PM 30.6839 -82.6461 13° North 485 558 37,000  Level Jacksonville Center
07:28PM 30.8131 -82.5831 23° Northeast 485 558 37,000 -60 Level Jacksonville Center
07:29PM 30.9467 -82.5219 21° North 503 579 36,900  Descending Jacksonville Center
07:30PM 31.0781 -82.4608 22° Northeast 508 585 37,000  Climbing Jacksonville Center
07:31PM 31.2114 -82.3969 22° Northeast 513 590 37,000  Level Jacksonville Center
07:32PM 31.3428 -82.3381 21° North 513 590 37,000 -60 Level Jacksonville Center
07:33PM 31.4803 -82.2714 22° Northeast 513 590 36,900  Descending Jacksonville Center
07:34PM 31.6136 -82.2119 21° North 513 590 37,000  Climbing Jacksonville Center
07:35PM 31.7342 -82.1475 24° Northeast 519 597 37,000  Level Jacksonville Center
07:36PM 31.8842 -82.0778 22° Northeast 519 597 37,000  Level Jacksonville Center
07:37PM 32.0172 -82.0153 22° Northeast 518 596 37,000  Level Jacksonville Center
07:38PM 32.1400 -81.9528 23° Northeast 519 597 37,000  Level Jacksonville Center
07:39PM 32.2900 -81.8850 21° North 519 597 37,000  Level Jacksonville Center
07:40PM 32.4231 -81.8194 23° Northeast 519 597 37,000  Level Jacksonville Center
07:41PM 32.5433 -81.7417 29° Northeast 526 605 37,000  Level Jacksonville Center
07:42PM 32.6844 -81.6386 32° Northeast 538 619 37,000  Level Jacksonville Center
07:43PM 32.8003 -81.5506 33° Northeast 543 625 37,000 -60 Level Jacksonville Center
07:44PM 32.9308 -81.4547 32° Northeast 543 625 36,900  Descending Jacksonville Center
07:45PM 33.0633 -81.3583 31° Northeast 543 625 37,000  Climbing Jacksonville Center
07:46PM 33.1914 -81.2617 32° Northeast 543 625 37,000  Level Jacksonville Center
07:47PM 33.3194 -81.1675 32° Northeast 537 618 37,000  Level Jacksonville Center
07:48PM 33.4478 -81.0728 32° Northeast 537 618 37,000  Level Jacksonville Center
07:49PM 33.5756 -80.9781 32° Northeast 537 618 37,000  Level Jacksonville Center
07:50PM 33.7036 -80.8828 32° Northeast 537 618 37,000  Level Jacksonville Center
07:51PM 33.8292 -80.7850 33° Northeast 537 618 37,000  Level Jacksonville Center
07:52PM 33.9592 -80.6892 31° Northeast 537 618 37,000  Level Jacksonville Center
07:54PM 34.2131 -80.4939 32° Northeast 540 621 37,000  Level Washington Center
07:55PM 34.3381 -80.3956 33° Northeast 540 621 37,000  Level Washington Center
07:56PM 34.4631 -80.2997 32° Northeast 540 621 37,000  Level Washington Center
07:57PM 34.5919 -80.2036 32° Northeast 540 621 37,000  Level Washington Center
07:58PM 34.7189 -80.1022 33° Northeast 540 621 37,100  Climbing Washington Center
07:59PM 34.8456 -80.0081 31° Northeast 540 621 37,000 -60 Descending Washington Center
08:00PM 34.9722 -79.9083 33° Northeast 540 621 37,000  Level Washington Center
08:01PM 35.0969 -79.8086 33° Northeast 540 621 37,000  Level Washington Center
08:02PM 35.2211 -79.7133 32° Northeast 540 621 37,000 -60 Level Washington Center
08:03PM 35.3456 -79.6153 33° Northeast 535 616 36,900  Descending Washington Center
08:04PM 35.4700 -79.5144 33° Northeast 535 616 37,000  Climbing Washington Center
08:05PM 35.5942 -79.4158 33° Northeast 535 616 37,000  Level Washington Center
08:06PM 35.7206 -79.3169 32° Northeast 535 616 37,000  Level Washington Center
08:07PM 35.8486 -79.2181 32° Northeast 540 621 37,000  Level Washington Center
08:08PM 35.9619 -79.1256 33° Northeast 540 621 37,000  Level Washington Center
08:09PM 36.0881 -79.0258 33° Northeast 540 621 37,000  Level Washington Center
08:10PM 36.2142 -78.9233 33° Northeast 540 621 37,000  Level Washington Center
08:11PM 36.3358 -78.8228 34° Northeast 540 621 37,000  Level Washington Center
08:12PM 36.4636 -78.7194 33° Northeast 540 621 37,000  Level Washington Center
08:13PM 36.5917 -78.6133 34° Northeast 540 621 37,000  Level Washington Center
08:14PM 36.7225 -78.5564 19° North 501 577 37,000  Level Washington Center
08:15PM 36.8572 -78.5069 16° North 501 577 37,000  Level Washington Center
08:16PM 36.9897 -78.4522 18° North 501 577 37,000  Level Washington Center
08:17PM 37.1094 -78.3394 37° Northeast 508 585 37,000 -240 Level Washington Center
08:18PM 37.2356 -78.2006 41° Northeast 528 608 36,600 -660 Descending Washington Center
08:19PM 37.3400 -78.0892 40° Northeast 533 613 35,800 -960 Descending Washington Center
08:20PM 37.4575 -77.9622 41° Northeast 545 627 34,800 -1,020 Descending Washington Center
08:21PM 37.5725 -77.8322 42° Northeast 550 633 33,800 -1,020 Descending Washington Center
08:22PM 37.6939 -77.6992 41° Northeast 550 633 32,800 -1,380 Descending Washington Center
08:23PM 37.8150 -77.5658 41° Northeast 566 651 31,100 -900 Descending Washington Center
08:24PM 37.9442 -77.4481 36° Northeast 572 658 31,000 -60 Descending Washington Center
08:25PM 38.0836 -77.3222 35° Northeast 572 658 31,000  Level Washington Center
08:26PM 38.2103 -77.2064 36° Northeast 561 646 31,000  Level Washington Center
08:27PM 38.3411 -77.0875 35° Northeast 566 651 31,000 -1,140 Level Washington Center
08:28PM 38.4656 -76.9706 36° Northeast 566 651 28,800 -2,340 Descending Washington Center
08:29PM 38.5878 -76.8586 36° Northeast 555 639 26,400 -2,340 Descending Washington Center
08:30PM 38.7036 -76.7328 40° Northeast 544 626 24,200 -2,400 Descending Washington Center
08:31PM 38.7489 -76.5500 72° East 509 586 21,700 -2,340 Descending Washington Center
08:32PM 38.7814 -76.3800 76° East 497 572 19,600 -2,040 Descending Washington Center
08:33PM 38.8117 -76.2203 76° East 484 557 17,700 -2,040 Descending Washington Center
08:34PM 38.8456 -76.0742 73° East 448 516 15,600 -1,380 Descending Washington Center
08:35PM 38.8733 -75.9328 76° East 417 480 15,000 -780 Descending Washington Center
08:36PM 38.9214 -75.8078 64° Northeast 386 444 14,100 -720 Descending Washington Center
08:37PM 39.0028 -75.7333 35° Northeast 363 418 13,600 -540 Descending Washington Center
08:38PM 39.0864 -75.6744 29° Northeast 339 390 13,100 -540 Descending Washington Center
08:39PM 39.2500 -75.6667 North 320 368 12,200 -420 Descending Philadelphia TRACON
08:40PM 39.3167 -75.6167 30° Northeast 286 329 12,100 -180 Descending Philadelphia TRACON
08:41PM 39.3833 -75.5667 30° Northeast 285 328 11,900 -900 Descending Philadelphia TRACON
08:42PM 39.4667 -75.5333 17° North 270 311 10,400 -960 Descending Philadelphia TRACON
08:43PM 39.5167 -75.4833 38° Northeast 274 315 10,100 -180 Descending Philadelphia TRACON
08:44PM 39.5667 -75.4333 38° Northeast 268 308 10,100  Level Philadelphia TRACON
08:45PM 39.6167 -75.3667 46° Northeast 266 306 10,100  Level Philadelphia TRACON
08:46PM 39.6833 -75.3000 38° Northeast 269 310 10,100 -60 Level Philadelphia TRACON
08:47PM 39.7500 -75.2500 30° Northeast 269 310 10,000  Descending Philadelphia TRACON
08:48PM 39.8000 -75.2000 38° Northeast 263 303 10,100 -60 Climbing Philadelphia TRACON
08:49PM 39.8667 -75.1500 30° Northeast 267 307 9,900 -1,200 Descending Philadelphia TRACON
08:50PM 39.9333 -75.1000 30° Northeast 252 290 7,700 -2,400 Descending Philadelphia TRACON
08:51PM 40.0000 -75.0667 21° North 237 273 5,200 -2,280 Descending Philadelphia TRACON
08:52PM 40.0500 -75.0167 37° Northeast 239 275 3,200 -1,140 Descending Philadelphia TRACON
08:53PM 40.1000 -74.9833 27° Northeast 178 205 3,000 -600 Descending Philadelphia TRACON
08:54PM 40.1500 -74.9500 27° Northeast 172 198 2,100 -540 Descending Philadelphia TRACON
08:55PM 40.1833 -74.9333 21° North 157 181 2,000 -180 Descending Philadelphia TRACON
08:56PM 40.2167 -74.9000 37° Northeast 142 163 1,800 -420 Descending Philadelphia TRACON
08:57PM 40.2333 -74.8667 57° Northeast 116 133 1,200 -660 Descending Philadelphia TRACON
08:58PM 40.2667 -74.8333 37° Northeast 116 133 500 -720 Descending Philadelphia TRACON
09:00PM 40.2767 -74.8135 45° Northeast  Level Estimated
09:07PM 40.2767 -74.8135 45° Northeast  Level Estimated